Waldeck, Texas
Current Conditions -  °F | °C
As of 9:35 AM on Sunday 21 Dec 2014 (Local Time) from KGYB Reporting Station
Overcast Overcast  
Wind Chill: 50°   Ceiling: 800
Heat Index: 50°   Visibility: 7mi
Dew Point: 47°   Wind: 3mph
Humidity: 90%   Direction: 140°SE
Pressure: 30.15"   Gusts: NA
Location:  30.2279°N, 96.7713°W
Report Text: KGYB 211535Z AUTO 14003KT 7SM BKN008 OVC013 10/09 A3015 RMK AO2 T01010086
Loading
Personal Weather Stations






























Interactive Weather Map New forecast layout! Learn more

10-Day Weather Forecast

Advertisements
Track Severe Weather on mobile